Search for airport 
image banner adimage banner adimage banner ad
image banner ad

4CL9 - Arrowhead Rgnl Medical Center

Located in Colton, United States

ICAO - 4CL9, IATA -

Data provided by Airmate  

General information

Coordinates: N34°4'29" W117°20'58"
Elevation is 1076 feet MSL.
Magnetic variation is 14° East
View others Airports in California

Operational data

Special qualification required
Current time UTC:
Current local time:
Weather at : KSBD - San Bernardino Intl ( 11 km )
METAR: KSBD 240900Z AUTO 26003KT 10SM SCT110 19/13 A3000 RMK AO2 T01920128
TAF: KSBD 240520Z 2406/2506 VRB05KT P6SM SCT100 FM242230 26010KT P6SM SCT100 FM250400 VRB05KT P6SM SCT100
View NOTAMs / SUP AIP / TFR affecting this airport [VIEW]
Communications frequencies: [VIEW]

Runways:

Airport contact information

Address: Colton United States

Satellite view of 4CL9